sensor_id;sensor_type;location;lat;lon;timestamp;temperature;humidity
25332;DHT22;13284;52.748;13.452;2023-08-30T00:01:29;14.90;99.90
25332;DHT22;13284;52.748;13.452;2023-08-30T00:03:55;14.90;99.90
25332;DHT22;13284;52.748;13.452;2023-08-30T00:06:20;14.80;99.90
25332;DHT22;13284;52.748;13.452;2023-08-30T00:08:46;14.80;99.90
25332;DHT22;13284;52.748;13.452;2023-08-30T00:11:11;14.80;99.90
25332;DHT22;13284;52.748;13.452;2023-08-30T00:13:37;14.80;99.90
25332;DHT22;13284;52.748;13.452;2023-08-30T00:16:02;14.80;99.90
25332;DHT22;13284;52.748;13.452;2023-08-30T00:18:29;14.70;99.90
25332;DHT22;13284;52.748;13.452;2023-08-30T00:20:54;14.70;99.90
25332;DHT22;13284;52.748;13.452;2023-08-30T00:23:22;14.70;99.90
25332;DHT22;13284;52.748;13.452;2023-08-30T00:25:47;14.70;99.90
25332;DHT22;13284;52.748;13.452;2023-08-30T00:28:14;14.70;99.90
25332;DHT22;13284;52.748;13.452;2023-08-30T00:30:39;14.70;99.90
25332;DHT22;13284;52.748;13.452;2023-08-30T00:33:05;14.80;99.90
25332;DHT22;13284;52.748;13.452;2023-08-30T00:35:30;14.80;99.90
25332;DHT22;13284;52.748;13.452;2023-08-30T00:37:56;14.70;99.90
25332;DHT22;13284;52.748;13.452;2023-08-30T00:40:25;14.70;99.90
25332;DHT22;13284;52.748;13.452;2023-08-30T00:42:51;14.70;99.90
25332;DHT22;13284;52.748;13.452;2023-08-30T00:45:16;14.70;99.90
25332;DHT22;13284;52.748;13.452;2023-08-30T00:47:42;14.60;99.90
25332;DHT22;13284;52.748;13.452;2023-08-30T00:50:08;14.60;99.90
25332;DHT22;13284;52.748;13.452;2023-08-30T00:52:35;14.70;99.90
25332;DHT22;13284;52.748;13.452;2023-08-30T00:55:00;14.70;99.90
25332;DHT22;13284;52.748;13.452;2023-08-30T00:57:26;14.70;99.90
25332;DHT22;13284;52.748;13.452;2023-08-30T00:59:53;14.70;99.90
25332;DHT22;13284;52.748;13.452;2023-08-30T01:02:18;14.70;99.90
25332;DHT22;13284;52.748;13.452;2023-08-30T01:04:45;14.70;99.90
25332;DHT22;13284;52.748;13.452;2023-08-30T01:07:11;14.70;99.90
25332;DHT22;13284;52.748;13.452;2023-08-30T01:09:36;14.60;99.90
25332;DHT22;13284;52.748;13.452;2023-08-30T01:12:09;14.70;99.90
25332;DHT22;13284;52.748;13.452;2023-08-30T01:14:57;14.60;99.90
25332;DHT22;13284;52.748;13.452;2023-08-30T01:17:24;14.60;99.90
25332;DHT22;13284;52.748;13.452;2023-08-30T01:22:48;14.60;99.90
25332;DHT22;13284;52.748;13.452;2023-08-30T01:28:16;14.70;99.90
25332;DHT22;13284;52.748;13.452;2023-08-30T01:31:21;14.70;99.90
25332;DHT22;13284;52.748;13.452;2023-08-30T01:33:47;14.70;99.90
25332;DHT22;13284;52.748;13.452;2023-08-30T01:36:14;14.70;99.90
25332;DHT22;13284;52.748;13.452;2023-08-30T01:38:40;14.70;99.90
25332;DHT22;13284;52.748;13.452;2023-08-30T01:41:06;14.60;99.90
25332;DHT22;13284;52.748;13.452;2023-08-30T01:43:31;14.60;99.90
25332;DHT22;13284;52.748;13.452;2023-08-30T01:45:59;14.60;99.90
25332;DHT22;13284;52.748;13.452;2023-08-30T01:48:27;14.60;99.90
25332;DHT22;13284;52.748;13.452;2023-08-30T01:50:53;14.60;99.90
25332;DHT22;13284;52.748;13.452;2023-08-30T01:53:24;14.50;99.90
25332;DHT22;13284;52.748;13.452;2023-08-30T01:55:50;14.50;99.90
25332;DHT22;13284;52.748;13.452;2023-08-30T01:58:15;14.50;99.90
25332;DHT22;13284;52.748;13.452;2023-08-30T02:00:41;14.50;99.90
25332;DHT22;13284;52.748;13.452;2023-08-30T02:03:10;14.60;99.90
25332;DHT22;13284;52.748;13.452;2023-08-30T02:05:38;14.60;99.90
25332;DHT22;13284;52.748;13.452;2023-08-30T02:08:11;14.60;99.90
25332;DHT22;13284;52.748;13.452;2023-08-30T02:10:41;14.60;99.90
25332;DHT22;13284;52.748;13.452;2023-08-30T02:13:11;14.50;99.90
25332;DHT22;13284;52.748;13.452;2023-08-30T02:15:38;14.40;99.90
25332;DHT22;13284;52.748;13.452;2023-08-30T02:18:07;14.40;99.90
25332;DHT22;13284;52.748;13.452;2023-08-30T02:20:33;14.40;99.90
25332;DHT22;13284;52.748;13.452;2023-08-30T02:22:59;14.40;99.90
25332;DHT22;13284;52.748;13.452;2023-08-30T02:25:25;14.40;99.90
25332;DHT22;13284;52.748;13.452;2023-08-30T02:27:51;14.40;99.90
25332;DHT22;13284;52.748;13.452;2023-08-30T02:30:16;14.40;99.90
25332;DHT22;13284;52.748;13.452;2023-08-30T02:32:42;14.40;99.90
25332;DHT22;13284;52.748;13.452;2023-08-30T02:35:08;14.40;99.90
25332;DHT22;13284;52.748;13.452;2023-08-30T02:37:33;14.40;99.90
25332;DHT22;13284;52.748;13.452;2023-08-30T02:39:59;14.40;99.90
25332;DHT22;13284;52.748;13.452;2023-08-30T02:42:24;14.40;99.90
25332;DHT22;13284;52.748;13.452;2023-08-30T02:44:51;14.40;99.90
25332;DHT22;13284;52.748;13.452;2023-08-30T02:47:17;14.50;99.90
25332;DHT22;13284;52.748;13.452;2023-08-30T02:49:42;14.40;99.90
25332;DHT22;13284;52.748;13.452;2023-08-30T02:52:08;14.40;99.90
25332;DHT22;13284;52.748;13.452;2023-08-30T02:54:34;14.30;99.90
25332;DHT22;13284;52.748;13.452;2023-08-30T02:56:59;14.30;99.90
25332;DHT22;13284;52.748;13.452;2023-08-30T02:59:25;14.20;99.90
25332;DHT22;13284;52.748;13.452;2023-08-30T03:01:51;14.10;99.90
25332;DHT22;13284;52.748;13.452;2023-08-30T03:04:16;14.10;99.90
25332;DHT22;13284;52.748;13.452;2023-08-30T03:06:41;14.10;99.90
25332;DHT22;13284;52.748;13.452;2023-08-30T03:09:07;14.10;99.90
25332;DHT22;13284;52.748;13.452;2023-08-30T03:11:33;14.10;99.90
25332;DHT22;13284;52.748;13.452;2023-08-30T03:13:58;14.10;99.90
25332;DHT22;13284;52.748;13.452;2023-08-30T03:16:24;14.00;99.90
25332;DHT22;13284;52.748;13.452;2023-08-30T03:18:50;14.00;99.90
25332;DHT22;13284;52.748;13.452;2023-08-30T03:21:15;13.90;99.90
25332;DHT22;13284;52.748;13.452;2023-08-30T03:23:41;13.90;99.90
25332;DHT22;13284;52.748;13.452;2023-08-30T03:26:14;13.80;99.90
25332;DHT22;13284;52.748;13.452;2023-08-30T03:28:41;13.90;99.90
25332;DHT22;13284;52.748;13.452;2023-08-30T03:31:17;13.90;99.90
25332;DHT22;13284;52.748;13.452;2023-08-30T03:33:43;13.90;99.90
25332;DHT22;13284;52.748;13.452;2023-08-30T03:36:14;13.80;99.90
25332;DHT22;13284;52.748;13.452;2023-08-30T03:38:40;13.90;99.90
25332;DHT22;13284;52.748;13.452;2023-08-30T03:41:06;13.80;99.90
25332;DHT22;13284;52.748;13.452;2023-08-30T03:43:32;13.80;99.90
25332;DHT22;13284;52.748;13.452;2023-08-30T03:46:00;13.80;99.90
25332;DHT22;13284;52.748;13.452;2023-08-30T03:48:26;13.80;99.90
25332;DHT22;13284;52.748;13.452;2023-08-30T03:50:52;13.80;99.90
25332;DHT22;13284;52.748;13.452;2023-08-30T03:53:18;13.80;99.90
25332;DHT22;13284;52.748;13.452;2023-08-30T03:55:44;13.80;99.90
25332;DHT22;13284;52.748;13.452;2023-08-30T03:58:09;13.80;99.90
25332;DHT22;13284;52.748;13.452;2023-08-30T04:00:39;13.80;99.90
25332;DHT22;13284;52.748;13.452;2023-08-30T04:03:09;13.80;99.90
25332;DHT22;13284;52.748;13.452;2023-08-30T04:05:35;13.90;99.90
25332;DHT22;13284;52.748;13.452;2023-08-30T04:08:02;13.90;99.90
25332;DHT22;13284;52.748;13.452;2023-08-30T04:10:28;13.90;99.90
25332;DHT22;13284;52.748;13.452;2023-08-30T04:12:54;13.90;99.90
25332;DHT22;13284;52.748;13.452;2023-08-30T04:15:19;13.90;99.90
25332;DHT22;13284;52.748;13.452;2023-08-30T04:17:45;13.80;99.90
25332;DHT22;13284;52.748;13.452;2023-08-30T04:20:10;13.80;99.90
25332;DHT22;13284;52.748;13.452;2023-08-30T04:22:36;13.90;99.90
25332;DHT22;13284;52.748;13.452;2023-08-30T04:25:03;13.90;99.90
25332;DHT22;13284;52.748;13.452;2023-08-30T04:27:28;13.90;99.90
25332;DHT22;13284;52.748;13.452;2023-08-30T04:29:54;13.80;99.90
25332;DHT22;13284;52.748;13.452;2023-08-30T04:32:19;13.80;99.90
25332;DHT22;13284;52.748;13.452;2023-08-30T04:34:45;13.80;99.90
25332;DHT22;13284;52.748;13.452;2023-08-30T04:37:10;13.90;99.90
25332;DHT22;13284;52.748;13.452;2023-08-30T04:39:36;13.90;99.90
25332;DHT22;13284;52.748;13.452;2023-08-30T04:42:02;13.90;99.90
25332;DHT22;13284;52.748;13.452;2023-08-30T04:44:28;13.90;99.90
25332;DHT22;13284;52.748;13.452;2023-08-30T04:46:54;14.00;99.90
25332;DHT22;13284;52.748;13.452;2023-08-30T04:49:20;13.90;99.90
25332;DHT22;13284;52.748;13.452;2023-08-30T04:51:46;14.00;99.90
25332;DHT22;13284;52.748;13.452;2023-08-30T04:54:12;14.00;99.90
25332;DHT22;13284;52.748;13.452;2023-08-30T04:56:38;14.00;99.90
25332;DHT22;13284;52.748;13.452;2023-08-30T04:59:03;14.00;99.90
25332;DHT22;13284;52.748;13.452;2023-08-30T05:01:30;14.00;99.90
25332;DHT22;13284;52.748;13.452;2023-08-30T05:03:55;14.00;99.90
25332;DHT22;13284;52.748;13.452;2023-08-30T05:06:21;14.00;99.90
25332;DHT22;13284;52.748;13.452;2023-08-30T05:08:46;13.90;99.90
25332;DHT22;13284;52.748;13.452;2023-08-30T05:11:12;14.00;99.90
25332;DHT22;13284;52.748;13.452;2023-08-30T05:13:38;14.00;99.90
25332;DHT22;13284;52.748;13.452;2023-08-30T05:16:03;14.00;99.90
25332;DHT22;13284;52.748;13.452;2023-08-30T05:18:29;14.00;99.90
25332;DHT22;13284;52.748;13.452;2023-08-30T05:20:54;14.10;99.90
25332;DHT22;13284;52.748;13.452;2023-08-30T05:23:20;14.10;99.90
25332;DHT22;13284;52.748;13.452;2023-08-30T05:25:45;14.10;99.90
25332;DHT22;13284;52.748;13.452;2023-08-30T05:28:12;14.10;99.90
25332;DHT22;13284;52.748;13.452;2023-08-30T05:30:41;14.10;99.90
25332;DHT22;13284;52.748;13.452;2023-08-30T05:33:07;14.10;99.90
25332;DHT22;13284;52.748;13.452;2023-08-30T05:35:32;14.20;99.90
25332;DHT22;13284;52.748;13.452;2023-08-30T05:37:58;14.30;99.90
25332;DHT22;13284;52.748;13.452;2023-08-30T05:40:23;14.40;99.90
25332;DHT22;13284;52.748;13.452;2023-08-30T05:42:49;14.50;99.90
25332;DHT22;13284;52.748;13.452;2023-08-30T05:45:15;14.50;99.90
25332;DHT22;13284;52.748;13.452;2023-08-30T05:47:41;14.50;99.90
25332;DHT22;13284;52.748;13.452;2023-08-30T05:50:07;14.60;99.90
25332;DHT22;13284;52.748;13.452;2023-08-30T05:52:33;14.60;99.90
25332;DHT22;13284;52.748;13.452;2023-08-30T05:54:58;14.70;99.90
25332;DHT22;13284;52.748;13.452;2023-08-30T05:57:24;14.70;99.90
25332;DHT22;13284;52.748;13.452;2023-08-30T05:59:50;14.70;99.90
25332;DHT22;13284;52.748;13.452;2023-08-30T06:02:16;14.70;99.90
25332;DHT22;13284;52.748;13.452;2023-08-30T06:04:42;14.70;99.90
25332;DHT22;13284;52.748;13.452;2023-08-30T06:07:07;14.70;99.90
25332;DHT22;13284;52.748;13.452;2023-08-30T06:09:33;14.80;99.90
25332;DHT22;13284;52.748;13.452;2023-08-30T06:11:59;14.80;99.90
25332;DHT22;13284;52.748;13.452;2023-08-30T06:14:24;14.80;99.90
25332;DHT22;13284;52.748;13.452;2023-08-30T06:16:50;14.80;99.90
25332;DHT22;13284;52.748;13.452;2023-08-30T06:19:15;14.90;99.90
25332;DHT22;13284;52.748;13.452;2023-08-30T06:21:41;14.90;99.90
25332;DHT22;13284;52.748;13.452;2023-08-30T06:24:06;15.00;99.90
25332;DHT22;13284;52.748;13.452;2023-08-30T06:26:32;15.10;99.90
25332;DHT22;13284;52.748;13.452;2023-08-30T06:28:58;15.20;99.90
25332;DHT22;13284;52.748;13.452;2023-08-30T06:31:23;15.30;99.90
25332;DHT22;13284;52.748;13.452;2023-08-30T06:33:49;15.40;99.90
25332;DHT22;13284;52.748;13.452;2023-08-30T06:36:16;15.40;99.90
25332;DHT22;13284;52.748;13.452;2023-08-30T06:38:42;15.40;99.90
25332;DHT22;13284;52.748;13.452;2023-08-30T06:41:08;15.50;99.90
25332;DHT22;13284;52.748;13.452;2023-08-30T06:43:34;15.60;99.90
25332;DHT22;13284;52.748;13.452;2023-08-30T06:45:59;15.70;99.90
25332;DHT22;13284;52.748;13.452;2023-08-30T06:48:25;15.80;99.90
25332;DHT22;13284;52.748;13.452;2023-08-30T06:50:51;15.70;99.90
25332;DHT22;13284;52.748;13.452;2023-08-30T06:53:17;15.90;99.90
25332;DHT22;13284;52.748;13.452;2023-08-30T06:55:42;16.00;99.90
25332;DHT22;13284;52.748;13.452;2023-08-30T06:58:07;15.90;99.90
25332;DHT22;13284;52.748;13.452;2023-08-30T07:00:33;16.10;99.90
25332;DHT22;13284;52.748;13.452;2023-08-30T07:02:59;16.00;99.90
25332;DHT22;13284;52.748;13.452;2023-08-30T07:05:24;16.20;99.90
25332;DHT22;13284;52.748;13.452;2023-08-30T07:07:50;16.30;99.90
25332;DHT22;13284;52.748;13.452;2023-08-30T07:10:15;16.40;99.90
25332;DHT22;13284;52.748;13.452;2023-08-30T07:12:41;16.50;99.90
25332;DHT22;13284;52.748;13.452;2023-08-30T07:15:07;16.60;99.90
25332;DHT22;13284;52.748;13.452;2023-08-30T07:17:32;16.60;99.90
25332;DHT22;13284;52.748;13.452;2023-08-30T07:19:58;16.50;99.90
25332;DHT22;13284;52.748;13.452;2023-08-30T07:22:23;16.70;99.90
25332;DHT22;13284;52.748;13.452;2023-08-30T07:24:49;16.70;99.90
25332;DHT22;13284;52.748;13.452;2023-08-30T07:27:15;16.80;99.90
25332;DHT22;13284;52.748;13.452;2023-08-30T07:29:40;16.80;99.90
25332;DHT22;13284;52.748;13.452;2023-08-30T07:32:06;16.90;99.90
25332;DHT22;13284;52.748;13.452;2023-08-30T07:34:32;17.10;99.90
25332;DHT22;13284;52.748;13.452;2023-08-30T07:36:58;17.10;99.90
25332;DHT22;13284;52.748;13.452;2023-08-30T07:39:23;17.30;99.90
25332;DHT22;13284;52.748;13.452;2023-08-30T07:41:48;17.30;99.90
25332;DHT22;13284;52.748;13.452;2023-08-30T07:44:14;17.40;99.90
25332;DHT22;13284;52.748;13.452;2023-08-30T07:46:39;17.50;99.90
25332;DHT22;13284;52.748;13.452;2023-08-30T07:49:05;17.60;99.90
25332;DHT22;13284;52.748;13.452;2023-08-30T07:51:30;17.70;99.90
25332;DHT22;13284;52.748;13.452;2023-08-30T07:53:56;17.60;99.90
25332;DHT22;13284;52.748;13.452;2023-08-30T07:56:22;17.80;99.90
25332;DHT22;13284;52.748;13.452;2023-08-30T07:58:47;17.90;99.90
25332;DHT22;13284;52.748;13.452;2023-08-30T08:01:13;17.90;99.90
25332;DHT22;13284;52.748;13.452;2023-08-30T08:03:38;17.90;99.90
25332;DHT22;13284;52.748;13.452;2023-08-30T08:06:04;17.80;99.90
25332;DHT22;13284;52.748;13.452;2023-08-30T08:08:29;17.90;99.90
25332;DHT22;13284;52.748;13.452;2023-08-30T08:10:55;17.80;99.90
25332;DHT22;13284;52.748;13.452;2023-08-30T08:13:20;17.80;99.90
25332;DHT22;13284;52.748;13.452;2023-08-30T08:15:46;17.90;99.90
25332;DHT22;13284;52.748;13.452;2023-08-30T08:18:11;17.90;99.90
25332;DHT22;13284;52.748;13.452;2023-08-30T08:20:37;17.90;99.90
25332;DHT22;13284;52.748;13.452;2023-08-30T08:23:04;17.90;99.90
25332;DHT22;13284;52.748;13.452;2023-08-30T08:25:30;17.90;99.90
25332;DHT22;13284;52.748;13.452;2023-08-30T08:27:55;17.90;99.90
25332;DHT22;13284;52.748;13.452;2023-08-30T08:30:21;17.90;99.90
25332;DHT22;13284;52.748;13.452;2023-08-30T08:32:47;18.00;99.90
25332;DHT22;13284;52.748;13.452;2023-08-30T08:35:13;18.20;99.90
25332;DHT22;13284;52.748;13.452;2023-08-30T08:37:39;18.40;99.90
25332;DHT22;13284;52.748;13.452;2023-08-30T08:40:05;18.50;99.90
25332;DHT22;13284;52.748;13.452;2023-08-30T08:42:34;18.60;99.90
25332;DHT22;13284;52.748;13.452;2023-08-30T08:45:04;18.80;99.90
25332;DHT22;13284;52.748;13.452;2023-08-30T08:47:30;19.00;99.90
25332;DHT22;13284;52.748;13.452;2023-08-30T08:49:56;19.00;99.90
25332;DHT22;13284;52.748;13.452;2023-08-30T08:52:24;18.90;99.90
25332;DHT22;13284;52.748;13.452;2023-08-30T08:54:49;18.90;99.90
25332;DHT22;13284;52.748;13.452;2023-08-30T08:57:15;19.10;99.90
25332;DHT22;13284;52.748;13.452;2023-08-30T08:59:41;19.10;99.90
25332;DHT22;13284;52.748;13.452;2023-08-30T09:02:08;19.10;99.90
25332;DHT22;13284;52.748;13.452;2023-08-30T09:04:34;19.30;99.90
25332;DHT22;13284;52.748;13.452;2023-08-30T09:06:59;19.20;99.90
25332;DHT22;13284;52.748;13.452;2023-08-30T09:09:26;19.30;99.90
25332;DHT22;13284;52.748;13.452;2023-08-30T09:11:52;19.60;99.90
25332;DHT22;13284;52.748;13.452;2023-08-30T09:14:18;19.90;99.90
25332;DHT22;13284;52.748;13.452;2023-08-30T09:16:57;19.70;99.90
25332;DHT22;13284;52.748;13.452;2023-08-30T09:19:23;19.40;99.90
25332;DHT22;13284;52.748;13.452;2023-08-30T09:21:53;19.70;99.90
25332;DHT22;13284;52.748;13.452;2023-08-30T09:24:18;20.20;99.90
25332;DHT22;13284;52.748;13.452;2023-08-30T09:26:48;20.40;99.90
25332;DHT22;13284;52.748;13.452;2023-08-30T09:29:16;20.20;99.90
25332;DHT22;13284;52.748;13.452;2023-08-30T09:31:42;20.60;99.90
25332;DHT22;13284;52.748;13.452;2023-08-30T09:34:08;21.10;99.90
25332;DHT22;13284;52.748;13.452;2023-08-30T09:36:41;21.30;99.90
25332;DHT22;13284;52.748;13.452;2023-08-30T09:39:14;21.10;99.90
25332;DHT22;13284;52.748;13.452;2023-08-30T09:41:48;21.40;99.90
25332;DHT22;13284;52.748;13.452;2023-08-30T09:44:15;20.90;99.90
25332;DHT22;13284;52.748;13.452;2023-08-30T09:46:44;21.10;99.90
25332;DHT22;13284;52.748;13.452;2023-08-30T09:49:10;21.20;99.90
25332;DHT22;13284;52.748;13.452;2023-08-30T09:51:41;21.50;99.90
25332;DHT22;13284;52.748;13.452;2023-08-30T09:54:20;21.60;99.90
25332;DHT22;13284;52.748;13.452;2023-08-30T09:56:46;22.10;99.90
25332;DHT22;13284;52.748;13.452;2023-08-30T09:59:13;22.00;99.90
25332;DHT22;13284;52.748;13.452;2023-08-30T10:01:40;22.20;99.90
25332;DHT22;13284;52.748;13.452;2023-08-30T10:04:07;22.20;99.90
25332;DHT22;13284;52.748;13.452;2023-08-30T10:06:39;22.00;99.90
25332;DHT22;13284;52.748;13.452;2023-08-30T10:09:06;22.10;99.90
25332;DHT22;13284;52.748;13.452;2023-08-30T10:11:34;22.20;99.90
25332;DHT22;13284;52.748;13.452;2023-08-30T10:14:05;22.30;99.90
25332;DHT22;13284;52.748;13.452;2023-08-30T10:16:44;22.20;99.90
25332;DHT22;13284;52.748;13.452;2023-08-30T10:19:15;22.10;99.90
25332;DHT22;13284;52.748;13.452;2023-08-30T10:21:43;22.40;99.90
25332;DHT22;13284;52.748;13.452;2023-08-30T10:24:10;22.10;99.90
25332;DHT22;13284;52.748;13.452;2023-08-30T10:26:37;23.00;99.90
25332;DHT22;13284;52.748;13.452;2023-08-30T10:29:05;23.90;99.90
25332;DHT22;13284;52.748;13.452;2023-08-30T10:31:31;23.40;99.90
25332;DHT22;13284;52.748;13.452;2023-08-30T10:33:56;23.10;99.90
25332;DHT22;13284;52.748;13.452;2023-08-30T10:36:23;23.20;99.90
25332;DHT22;13284;52.748;13.452;2023-08-30T10:38:53;23.80;99.90
25332;DHT22;13284;52.748;13.452;2023-08-30T10:41:23;24.30;99.90
25332;DHT22;13284;52.748;13.452;2023-08-30T10:43:55;23.90;99.90
25332;DHT22;13284;52.748;13.452;2023-08-30T10:46:34;24.50;99.90
25332;DHT22;13284;52.748;13.452;2023-08-30T10:49:12;24.50;99.90
25332;DHT22;13284;52.748;13.452;2023-08-30T10:51:40;24.10;99.90
25332;DHT22;13284;52.748;13.452;2023-08-30T10:54:16;24.00;99.90
25332;DHT22;13284;52.748;13.452;2023-08-30T10:59:21;22.90;99.90
25332;DHT22;13284;52.748;13.452;2023-08-30T11:01:48;23.20;99.90
25332;DHT22;13284;52.748;13.452;2023-08-30T11:04:17;23.40;99.90
25332;DHT22;13284;52.748;13.452;2023-08-30T11:06:44;23.60;99.90
25332;DHT22;13284;52.748;13.452;2023-08-30T11:09:15;24.30;99.90
25332;DHT22;13284;52.748;13.452;2023-08-30T11:11:48;23.40;99.90
25332;DHT22;13284;52.748;13.452;2023-08-30T11:14:14;23.40;99.90
25332;DHT22;13284;52.748;13.452;2023-08-30T11:16:40;23.20;99.90
25332;DHT22;13284;52.748;13.452;2023-08-30T11:19:08;23.80;99.90
25332;DHT22;13284;52.748;13.452;2023-08-30T11:21:36;24.30;99.90
25332;DHT22;13284;52.748;13.452;2023-08-30T11:24:05;24.20;99.90
25332;DHT22;13284;52.748;13.452;2023-08-30T11:26:31;23.90;99.90
25332;DHT22;13284;52.748;13.452;2023-08-30T11:28:57;23.60;99.90
25332;DHT22;13284;52.748;13.452;2023-08-30T11:31:24;23.60;99.90
25332;DHT22;13284;52.748;13.452;2023-08-30T11:33:53;23.90;99.90
25332;DHT22;13284;52.748;13.452;2023-08-30T11:36:22;24.00;99.90
25332;DHT22;13284;52.748;13.452;2023-08-30T11:38:49;23.60;99.90
25332;DHT22;13284;52.748;13.452;2023-08-30T11:41:14;23.40;99.90
25332;DHT22;13284;52.748;13.452;2023-08-30T11:43:40;23.40;99.90
25332;DHT22;13284;52.748;13.452;2023-08-30T11:46:06;23.40;99.90
25332;DHT22;13284;52.748;13.452;2023-08-30T11:48:32;23.10;99.90
25332;DHT22;13284;52.748;13.452;2023-08-30T11:50:58;22.80;99.90
25332;DHT22;13284;52.748;13.452;2023-08-30T11:53:24;22.70;99.90
25332;DHT22;13284;52.748;13.452;2023-08-30T11:55:51;22.60;99.90
25332;DHT22;13284;52.748;13.452;2023-08-30T11:58:18;22.40;99.90
25332;DHT22;13284;52.748;13.452;2023-08-30T12:00:44;22.70;99.90
25332;DHT22;13284;52.748;13.452;2023-08-30T12:03:13;23.00;99.90
25332;DHT22;13284;52.748;13.452;2023-08-30T12:05:47;23.00;99.90
25332;DHT22;13284;52.748;13.452;2023-08-30T12:08:27;23.20;99.90
25332;DHT22;13284;52.748;13.452;2023-08-30T12:10:54;23.10;99.90
25332;DHT22;13284;52.748;13.452;2023-08-30T12:13:28;23.20;99.90
25332;DHT22;13284;52.748;13.452;2023-08-30T12:15:55;22.90;99.90
25332;DHT22;13284;52.748;13.452;2023-08-30T12:18:25;23.00;99.90
25332;DHT22;13284;52.748;13.452;2023-08-30T12:20:54;23.20;99.90
25332;DHT22;13284;52.748;13.452;2023-08-30T12:23:24;22.10;99.90
25332;DHT22;13284;52.748;13.452;2023-08-30T12:26:07;22.40;99.90
25332;DHT22;13284;52.748;13.452;2023-08-30T12:28:34;22.40;99.90
25332;DHT22;13284;52.748;13.452;2023-08-30T12:31:00;22.40;99.90
25332;DHT22;13284;52.748;13.452;2023-08-30T12:33:26;22.40;99.90
25332;DHT22;13284;52.748;13.452;2023-08-30T12:35:52;22.40;99.90
25332;DHT22;13284;52.748;13.452;2023-08-30T12:38:18;22.20;99.90
25332;DHT22;13284;52.748;13.452;2023-08-30T12:40:48;22.20;99.90
25332;DHT22;13284;52.748;13.452;2023-08-30T12:43:14;22.10;99.90
25332;DHT22;13284;52.748;13.452;2023-08-30T12:45:41;22.00;99.90
25332;DHT22;13284;52.748;13.452;2023-08-30T12:48:10;22.00;99.90
25332;DHT22;13284;52.748;13.452;2023-08-30T12:50:37;22.00;99.90
25332;DHT22;13284;52.748;13.452;2023-08-30T12:53:06;21.80;99.90
25332;DHT22;13284;52.748;13.452;2023-08-30T12:55:32;21.90;99.90
25332;DHT22;13284;52.748;13.452;2023-08-30T12:57:58;22.10;99.90
25332;DHT22;13284;52.748;13.452;2023-08-30T13:00:24;22.00;99.90
25332;DHT22;13284;52.748;13.452;2023-08-30T13:02:49;22.10;99.90
25332;DHT22;13284;52.748;13.452;2023-08-30T13:05:15;22.10;99.90
25332;DHT22;13284;52.748;13.452;2023-08-30T13:07:41;21.90;99.90
25332;DHT22;13284;52.748;13.452;2023-08-30T13:10:07;21.40;99.90
25332;DHT22;13284;52.748;13.452;2023-08-30T13:12:33;21.50;99.90
25332;DHT22;13284;52.748;13.452;2023-08-30T13:14:58;21.60;99.90
25332;DHT22;13284;52.748;13.452;2023-08-30T13:17:24;21.50;99.90
25332;DHT22;13284;52.748;13.452;2023-08-30T13:19:49;21.80;99.90
25332;DHT22;13284;52.748;13.452;2023-08-30T13:22:16;21.60;99.90
25332;DHT22;13284;52.748;13.452;2023-08-30T13:24:41;21.80;99.90
25332;DHT22;13284;52.748;13.452;2023-08-30T13:27:07;21.90;99.90
25332;DHT22;13284;52.748;13.452;2023-08-30T13:29:32;21.90;99.90
25332;DHT22;13284;52.748;13.452;2023-08-30T13:31:58;21.60;99.90
25332;DHT22;13284;52.748;13.452;2023-08-30T13:34:23;21.40;99.90
25332;DHT22;13284;52.748;13.452;2023-08-30T13:36:49;21.40;99.90
25332;DHT22;13284;52.748;13.452;2023-08-30T13:39:14;21.60;99.90
25332;DHT22;13284;52.748;13.452;2023-08-30T13:41:40;21.80;99.90
25332;DHT22;13284;52.748;13.452;2023-08-30T13:44:06;21.70;99.90
25332;DHT22;13284;52.748;13.452;2023-08-30T13:46:32;21.70;99.90
25332;DHT22;13284;52.748;13.452;2023-08-30T13:48:57;21.30;99.90
25332;DHT22;13284;52.748;13.452;2023-08-30T13:51:26;21.30;99.90
25332;DHT22;13284;52.748;13.452;2023-08-30T13:53:52;21.20;99.90
25332;DHT22;13284;52.748;13.452;2023-08-30T13:56:18;21.30;99.90
25332;DHT22;13284;52.748;13.452;2023-08-30T13:58:45;21.10;99.90
25332;DHT22;13284;52.748;13.452;2023-08-30T14:01:11;21.20;99.90
25332;DHT22;13284;52.748;13.452;2023-08-30T14:03:36;21.20;99.90
25332;DHT22;13284;52.748;13.452;2023-08-30T14:06:02;21.30;99.90
25332;DHT22;13284;52.748;13.452;2023-08-30T14:08:28;21.10;99.90
25332;DHT22;13284;52.748;13.452;2023-08-30T14:10:55;21.30;99.90
25332;DHT22;13284;52.748;13.452;2023-08-30T14:13:20;21.50;99.90
25332;DHT22;13284;52.748;13.452;2023-08-30T14:15:46;21.60;99.90
25332;DHT22;13284;52.748;13.452;2023-08-30T14:18:12;21.60;99.90
25332;DHT22;13284;52.748;13.452;2023-08-30T14:20:37;21.80;99.90
25332;DHT22;13284;52.748;13.452;2023-08-30T14:23:03;21.80;99.90
25332;DHT22;13284;52.748;13.452;2023-08-30T14:25:29;21.60;99.90
25332;DHT22;13284;52.748;13.452;2023-08-30T14:27:54;21.50;99.90
25332;DHT22;13284;52.748;13.452;2023-08-30T14:30:20;21.50;99.90
25332;DHT22;13284;52.748;13.452;2023-08-30T14:32:46;21.50;99.90
25332;DHT22;13284;52.748;13.452;2023-08-30T14:35:11;21.90;99.90
25332;DHT22;13284;52.748;13.452;2023-08-30T14:37:37;22.10;99.90
25332;DHT22;13284;52.748;13.452;2023-08-30T14:40:03;22.10;99.90
25332;DHT22;13284;52.748;13.452;2023-08-30T14:42:29;22.00;99.90
25332;DHT22;13284;52.748;13.452;2023-08-30T14:44:55;22.00;99.90
25332;DHT22;13284;52.748;13.452;2023-08-30T14:47:21;22.00;99.90
25332;DHT22;13284;52.748;13.452;2023-08-30T14:49:46;21.90;99.90
25332;DHT22;13284;52.748;13.452;2023-08-30T14:52:16;22.00;99.90
25332;DHT22;13284;52.748;13.452;2023-08-30T14:54:42;22.00;99.90
25332;DHT22;13284;52.748;13.452;2023-08-30T14:57:08;21.70;99.90
25332;DHT22;13284;52.748;13.452;2023-08-30T14:59:34;21.90;99.90
25332;DHT22;13284;52.748;13.452;2023-08-30T15:01:59;21.90;99.90
25332;DHT22;13284;52.748;13.452;2023-08-30T15:04:25;22.30;99.90
25332;DHT22;13284;52.748;13.452;2023-08-30T15:06:50;22.30;99.90
25332;DHT22;13284;52.748;13.452;2023-08-30T15:09:17;22.80;99.90
25332;DHT22;13284;52.748;13.452;2023-08-30T15:11:43;22.80;99.90
25332;DHT22;13284;52.748;13.452;2023-08-30T15:14:09;22.80;99.90
25332;DHT22;13284;52.748;13.452;2023-08-30T15:16:34;22.70;99.90
25332;DHT22;13284;52.748;13.452;2023-08-30T15:19:00;22.60;99.90
25332;DHT22;13284;52.748;13.452;2023-08-30T15:21:25;22.60;99.90